sensor_id;sensor_type;location;lat;lon;timestamp;pressure;altitude;pressure_sealevel;temperature;humidity
79461;BME280;68929;42.666;23.324;2024-01-10T00:02:13;95523.13;;;8.16;42.27
79461;BME280;68929;42.666;23.324;2024-01-10T00:04:38;95545.75;;;8.33;42.04
79461;BME280;68929;42.666;23.324;2024-01-10T00:07:04;95531.78;;;8.47;44.75
79461;BME280;68929;42.666;23.324;2024-01-10T00:09:30;95516.94;;;7.64;41.73
79461;BME280;68929;42.666;23.324;2024-01-10T00:11:55;95543.38;;;7.93;44.97
79461;BME280;68929;42.666;23.324;2024-01-10T00:14:21;95524.56;;;8.04;42.89
79461;BME280;68929;42.666;23.324;2024-01-10T00:16:46;95554.28;;;8.35;44.08
79461;BME280;68929;42.666;23.324;2024-01-10T00:19:11;95563.41;;;8.47;43.48
79461;BME280;68929;42.666;23.324;2024-01-10T00:21:37;95537.31;;;8.15;43.51
79461;BME280;68929;42.666;23.324;2024-01-10T00:24:03;95541.75;;;8.37;43.57
79461;BME280;68929;42.666;23.324;2024-01-10T00:26:28;95564.81;;;8.35;41.88
79461;BME280;68929;42.666;23.324;2024-01-10T00:28:54;95562.56;;;7.79;43.45
79461;BME280;68929;42.666;23.324;2024-01-10T00:31:19;95551.09;;;7.72;44.17
79461;BME280;68929;42.666;23.324;2024-01-10T00:33:44;95566.50;;;7.83;42.51
79461;BME280;68929;42.666;23.324;2024-01-10T00:36:10;95558.72;;;7.67;44.66
79461;BME280;68929;42.666;23.324;2024-01-10T00:38:37;95551.00;;;7.88;44.41
79461;BME280;68929;42.666;23.324;2024-01-10T00:41:02;95555.88;;;7.46;43.83
79461;BME280;68929;42.666;23.324;2024-01-10T00:43:28;95550.50;;;7.84;45.19
79461;BME280;68929;42.666;23.324;2024-01-10T00:45:53;95547.81;;;7.70;41.79
79461;BME280;68929;42.666;23.324;2024-01-10T00:48:19;95543.53;;;7.07;44.51
79461;BME280;68929;42.666;23.324;2024-01-10T00:50:45;95558.19;;;7.41;44.95
79461;BME280;68929;42.666;23.324;2024-01-10T00:53:10;95551.16;;;7.64;44.30
79461;BME280;68929;42.666;23.324;2024-01-10T00:55:36;95549.72;;;7.84;44.03
79461;BME280;68929;42.666;23.324;2024-01-10T00:58:01;95561.91;;;7.23;43.59
79461;BME280;68929;42.666;23.324;2024-01-10T01:00:27;95571.72;;;7.60;44.60
79461;BME280;68929;42.666;23.324;2024-01-10T01:02:52;95565.38;;;7.55;44.17
79461;BME280;68929;42.666;23.324;2024-01-10T01:05:18;95570.41;;;7.87;44.05
79461;BME280;68929;42.666;23.324;2024-01-10T01:07:44;95565.38;;;7.77;43.58
79461;BME280;68929;42.666;23.324;2024-01-10T01:10:09;95558.97;;;7.80;43.78
79461;BME280;68929;42.666;23.324;2024-01-10T01:12:34;95540.66;;;7.56;43.69
79461;BME280;68929;42.666;23.324;2024-01-10T01:15:00;95567.25;;;7.69;44.41
79461;BME280;68929;42.666;23.324;2024-01-10T01:17:25;95546.34;;;7.37;44.78
79461;BME280;68929;42.666;23.324;2024-01-10T01:19:51;95557.19;;;7.42;44.51
79461;BME280;68929;42.666;23.324;2024-01-10T01:22:17;95561.03;;;7.31;44.44
79461;BME280;68929;42.666;23.324;2024-01-10T01:24:42;95552.25;;;7.47;45.26
79461;BME280;68929;42.666;23.324;2024-01-10T01:27:08;95555.75;;;7.62;44.23
79461;BME280;68929;42.666;23.324;2024-01-10T01:29:34;95551.19;;;7.56;44.01
79461;BME280;68929;42.666;23.324;2024-01-10T01:31:59;95558.31;;;7.47;44.93
79461;BME280;68929;42.666;23.324;2024-01-10T01:34:25;95554.56;;;7.42;45.25
79461;BME280;68929;42.666;23.324;2024-01-10T01:36:50;95539.13;;;7.39;44.86
79461;BME280;68929;42.666;23.324;2024-01-10T01:39:17;95528.34;;;7.25;44.13
79461;BME280;68929;42.666;23.324;2024-01-10T01:41:43;95537.13;;;7.41;44.60
79461;BME280;68929;42.666;23.324;2024-01-10T01:44:08;95545.44;;;7.30;44.42
79461;BME280;68929;42.666;23.324;2024-01-10T01:46:34;95533.22;;;7.37;44.62
79461;BME280;68929;42.666;23.324;2024-01-10T01:49:00;95534.81;;;7.46;44.48
79461;BME280;68929;42.666;23.324;2024-01-10T01:51:27;95527.56;;;7.48;44.83
79461;BME280;68929;42.666;23.324;2024-01-10T01:53:53;95542.75;;;7.38;42.64
79461;BME280;68929;42.666;23.324;2024-01-10T01:56:19;95539.75;;;7.49;45.40
79461;BME280;68929;42.666;23.324;2024-01-10T01:58:45;95502.34;;;7.31;44.78
79461;BME280;68929;42.666;23.324;2024-01-10T02:01:12;95511.78;;;7.48;45.40
79461;BME280;68929;42.666;23.324;2024-01-10T02:03:38;95513.72;;;7.54;43.82
79461;BME280;68929;42.666;23.324;2024-01-10T02:06:03;95503.59;;;7.43;42.65
79461;BME280;68929;42.666;23.324;2024-01-10T02:08:33;95532.22;;;6.99;46.25
79461;BME280;68929;42.666;23.324;2024-01-10T02:11:00;95510.22;;;7.31;46.44
79461;BME280;68929;42.666;23.324;2024-01-10T02:13:27;95512.63;;;7.09;46.13
79461;BME280;68929;42.666;23.324;2024-01-10T02:15:52;95524.94;;;7.17;46.24
79461;BME280;68929;42.666;23.324;2024-01-10T02:18:19;95529.22;;;7.49;45.48
79461;BME280;68929;42.666;23.324;2024-01-10T02:20:45;95511.63;;;7.18;45.32
79461;BME280;68929;42.666;23.324;2024-01-10T02:23:11;95531.69;;;7.73;45.25
79461;BME280;68929;42.666;23.324;2024-01-10T02:25:37;95509.00;;;6.80;45.50
79461;BME280;68929;42.666;23.324;2024-01-10T02:28:03;95487.16;;;6.08;43.22
79461;BME280;68929;42.666;23.324;2024-01-10T02:30:28;95510.16;;;6.77;45.21
79461;BME280;68929;42.666;23.324;2024-01-10T02:32:54;95526.69;;;7.24;44.93
79461;BME280;68929;42.666;23.324;2024-01-10T02:35:22;95493.66;;;7.30;44.24
79461;BME280;68929;42.666;23.324;2024-01-10T02:37:47;95522.69;;;7.37;43.32
79461;BME280;68929;42.666;23.324;2024-01-10T02:40:16;95502.16;;;7.01;45.18
79461;BME280;68929;42.666;23.324;2024-01-10T02:42:42;95505.47;;;6.95;41.26
79461;BME280;68929;42.666;23.324;2024-01-10T02:45:07;95507.81;;;6.90;45.85
79461;BME280;68929;42.666;23.324;2024-01-10T02:47:33;95516.22;;;7.16;45.28
79461;BME280;68929;42.666;23.324;2024-01-10T02:49:58;95490.06;;;6.92;45.81
79461;BME280;68929;42.666;23.324;2024-01-10T02:52:24;95506.44;;;7.02;45.14
79461;BME280;68929;42.666;23.324;2024-01-10T02:54:49;95513.38;;;6.87;46.45
79461;BME280;68929;42.666;23.324;2024-01-10T02:57:15;95497.28;;;6.90;44.70
79461;BME280;68929;42.666;23.324;2024-01-10T02:59:40;95522.47;;;7.15;43.71
79461;BME280;68929;42.666;23.324;2024-01-10T03:02:06;95509.47;;;6.83;45.14
79461;BME280;68929;42.666;23.324;2024-01-10T03:04:31;95521.16;;;7.11;43.65
79461;BME280;68929;42.666;23.324;2024-01-10T03:06:56;95507.03;;;7.12;43.50
79461;BME280;68929;42.666;23.324;2024-01-10T03:09:23;95503.94;;;7.09;44.07
79461;BME280;68929;42.666;23.324;2024-01-10T03:11:48;95525.59;;;7.50;44.71
79461;BME280;68929;42.666;23.324;2024-01-10T03:14:13;95495.94;;;7.02;43.66
79461;BME280;68929;42.666;23.324;2024-01-10T03:16:39;95530.59;;;7.37;43.84
79461;BME280;68929;42.666;23.324;2024-01-10T03:19:04;95523.78;;;7.19;44.80
79461;BME280;68929;42.666;23.324;2024-01-10T03:21:30;95529.69;;;7.21;44.82
79461;BME280;68929;42.666;23.324;2024-01-10T03:23:56;95515.91;;;7.11;43.96
79461;BME280;68929;42.666;23.324;2024-01-10T03:26:22;95515.34;;;7.32;45.24
79461;BME280;68929;42.666;23.324;2024-01-10T03:28:48;95508.69;;;7.44;44.95
79461;BME280;68929;42.666;23.324;2024-01-10T03:31:14;95516.50;;;7.30;43.92
79461;BME280;68929;42.666;23.324;2024-01-10T03:33:39;95534.22;;;7.36;43.21
79461;BME280;68929;42.666;23.324;2024-01-10T03:36:06;95522.72;;;7.28;43.54
79461;BME280;68929;42.666;23.324;2024-01-10T03:38:32;95537.34;;;7.31;44.37
79461;BME280;68929;42.666;23.324;2024-01-10T03:40:57;95502.19;;;7.32;44.88
79461;BME280;68929;42.666;23.324;2024-01-10T03:43:23;95509.44;;;7.30;43.78
79461;BME280;68929;42.666;23.324;2024-01-10T03:45:48;95499.38;;;7.34;44.08
79461;BME280;68929;42.666;23.324;2024-01-10T03:48:14;95513.38;;;7.57;45.04
79461;BME280;68929;42.666;23.324;2024-01-10T03:50:39;95510.25;;;7.53;43.97
79461;BME280;68929;42.666;23.324;2024-01-10T03:53:05;95512.88;;;7.84;44.03
79461;BME280;68929;42.666;23.324;2024-01-10T03:55:31;95498.25;;;7.59;42.97
79461;BME280;68929;42.666;23.324;2024-01-10T03:57:57;95521.59;;;7.54;43.21
79461;BME280;68929;42.666;23.324;2024-01-10T04:00:22;95519.09;;;7.60;44.73
79461;BME280;68929;42.666;23.324;2024-01-10T04:02:47;95521.72;;;7.38;44.70
79461;BME280;68929;42.666;23.324;2024-01-10T04:05:13;95533.84;;;7.39;43.84
79461;BME280;68929;42.666;23.324;2024-01-10T04:07:42;95529.16;;;6.00;42.95
79461;BME280;68929;42.666;23.324;2024-01-10T04:10:09;95518.91;;;4.91;43.60
79461;BME280;68929;42.666;23.324;2024-01-10T04:12:38;95533.13;;;4.55;48.49
79461;BME280;68929;42.666;23.324;2024-01-10T04:15:04;95523.66;;;4.02;43.63
79461;BME280;68929;42.666;23.324;2024-01-10T04:17:29;95530.28;;;4.15;50.18
79461;BME280;68929;42.666;23.324;2024-01-10T04:19:55;95534.97;;;3.85;46.46
79461;BME280;68929;42.666;23.324;2024-01-10T04:22:20;95517.94;;;3.46;45.10
79461;BME280;68929;42.666;23.324;2024-01-10T04:24:46;95534.47;;;4.07;44.57
79461;BME280;68929;42.666;23.324;2024-01-10T04:27:11;95557.34;;;4.82;45.82
79461;BME280;68929;42.666;23.324;2024-01-10T04:29:37;95541.53;;;4.66;41.91
79461;BME280;68929;42.666;23.324;2024-01-10T04:32:02;95562.44;;;3.89;47.23
79461;BME280;68929;42.666;23.324;2024-01-10T04:34:28;95543.09;;;4.26;45.63
79461;BME280;68929;42.666;23.324;2024-01-10T04:36:54;95551.59;;;4.28;47.08
79461;BME280;68929;42.666;23.324;2024-01-10T04:39:19;95562.59;;;3.70;46.54
79461;BME280;68929;42.666;23.324;2024-01-10T04:41:45;95571.53;;;3.15;43.63
79461;BME280;68929;42.666;23.324;2024-01-10T04:44:10;95585.28;;;3.07;46.40
79461;BME280;68929;42.666;23.324;2024-01-10T04:46:36;95566.84;;;2.82;46.44
79461;BME280;68929;42.666;23.324;2024-01-10T04:49:03;95577.09;;;3.82;49.55
79461;BME280;68929;42.666;23.324;2024-01-10T04:51:28;95574.19;;;3.50;47.04
79461;BME280;68929;42.666;23.324;2024-01-10T04:53:53;95581.22;;;4.28;46.77
79461;BME280;68929;42.666;23.324;2024-01-10T04:56:20;95567.31;;;4.53;40.71
79461;BME280;68929;42.666;23.324;2024-01-10T04:58:46;95567.63;;;4.76;47.70
79461;BME280;68929;42.666;23.324;2024-01-10T05:01:11;95586.22;;;4.65;41.17
79461;BME280;68929;42.666;23.324;2024-01-10T05:03:37;95582.84;;;3.86;42.09
79461;BME280;68929;42.666;23.324;2024-01-10T05:06:02;95563.56;;;3.07;44.71
79461;BME280;68929;42.666;23.324;2024-01-10T05:08:28;95588.59;;;3.89;45.08
79461;BME280;68929;42.666;23.324;2024-01-10T05:10:53;95562.94;;;4.11;50.32
79461;BME280;68929;42.666;23.324;2024-01-10T05:13:19;95572.06;;;3.71;41.32
79461;BME280;68929;42.666;23.324;2024-01-10T05:15:44;95533.00;;;3.70;50.12
79461;BME280;68929;42.666;23.324;2024-01-10T05:18:09;95572.19;;;4.23;41.99
79461;BME280;68929;42.666;23.324;2024-01-10T05:20:35;95598.31;;;2.90;44.94
79461;BME280;68929;42.666;23.324;2024-01-10T05:23:01;95601.97;;;2.60;45.33
79461;BME280;68929;42.666;23.324;2024-01-10T05:25:26;95574.53;;;3.38;49.12
79461;BME280;68929;42.666;23.324;2024-01-10T05:27:52;95598.88;;;2.28;43.46
79461;BME280;68929;42.666;23.324;2024-01-10T05:30:19;95588.63;;;2.07;48.81
79461;BME280;68929;42.666;23.324;2024-01-10T05:32:44;95589.00;;;2.78;50.40
79461;BME280;68929;42.666;23.324;2024-01-10T05:35:10;95607.84;;;2.06;48.80
79461;BME280;68929;42.666;23.324;2024-01-10T05:37:39;95587.88;;;3.17;50.09
79461;BME280;68929;42.666;23.324;2024-01-10T05:40:05;95614.41;;;2.85;52.05
79461;BME280;68929;42.666;23.324;2024-01-10T05:42:31;95618.78;;;3.66;42.25
79461;BME280;68929;42.666;23.324;2024-01-10T05:44:59;95592.19;;;3.88;43.49
79461;BME280;68929;42.666;23.324;2024-01-10T05:47:24;95605.44;;;4.04;48.86
79461;BME280;68929;42.666;23.324;2024-01-10T05:49:51;95573.44;;;4.62;48.65
79461;BME280;68929;42.666;23.324;2024-01-10T05:52:18;95587.88;;;3.79;47.82
79461;BME280;68929;42.666;23.324;2024-01-10T05:54:44;95601.75;;;3.97;42.93
79461;BME280;68929;42.666;23.324;2024-01-10T05:57:10;95579.13;;;3.26;43.50
79461;BME280;68929;42.666;23.324;2024-01-10T05:59:35;95609.16;;;4.02;44.19
79461;BME280;68929;42.666;23.324;2024-01-10T06:02:02;95619.38;;;4.31;44.80
79461;BME280;68929;42.666;23.324;2024-01-10T06:04:28;95585.38;;;4.90;43.77
79461;BME280;68929;42.666;23.324;2024-01-10T06:06:57;95616.91;;;4.55;44.27
79461;BME280;68929;42.666;23.324;2024-01-10T06:09:23;95625.84;;;5.21;46.55
79461;BME280;68929;42.666;23.324;2024-01-10T06:11:49;95623.00;;;5.48;43.39
79461;BME280;68929;42.666;23.324;2024-01-10T06:14:15;95621.25;;;5.73;44.13
79461;BME280;68929;42.666;23.324;2024-01-10T06:16:43;95596.28;;;4.09;40.33
79461;BME280;68929;42.666;23.324;2024-01-10T06:19:10;95592.06;;;4.84;46.66
79461;BME280;68929;42.666;23.324;2024-01-10T06:21:36;95624.03;;;4.88;43.36
79461;BME280;68929;42.666;23.324;2024-01-10T06:24:02;95604.59;;;4.73;42.29
79461;BME280;68929;42.666;23.324;2024-01-10T06:26:28;95629.84;;;4.31;42.61
79461;BME280;68929;42.666;23.324;2024-01-10T06:28:53;95613.72;;;4.43;43.00
79461;BME280;68929;42.666;23.324;2024-01-10T06:31:19;95641.69;;;5.53;46.99
79461;BME280;68929;42.666;23.324;2024-01-10T06:33:45;95639.66;;;5.39;46.59
79461;BME280;68929;42.666;23.324;2024-01-10T06:36:10;95616.06;;;4.29;39.05
79461;BME280;68929;42.666;23.324;2024-01-10T06:38:38;95627.47;;;3.67;45.44
79461;BME280;68929;42.666;23.324;2024-01-10T06:41:08;95631.28;;;4.25;44.14
79461;BME280;68929;42.666;23.324;2024-01-10T06:43:34;95626.00;;;4.43;43.10
79461;BME280;68929;42.666;23.324;2024-01-10T06:45:59;95631.34;;;6.10;44.30
79461;BME280;68929;42.666;23.324;2024-01-10T06:48:25;95620.03;;;6.82;41.75
79461;BME280;68929;42.666;23.324;2024-01-10T06:50:50;95656.88;;;7.20;40.61
79461;BME280;68929;42.666;23.324;2024-01-10T06:53:16;95639.13;;;7.22;41.67
79461;BME280;68929;42.666;23.324;2024-01-10T06:55:41;95632.84;;;7.40;42.02
79461;BME280;68929;42.666;23.324;2024-01-10T06:58:06;95654.25;;;7.20;40.28
79461;BME280;68929;42.666;23.324;2024-01-10T07:00:44;95649.88;;;7.52;41.56
79461;BME280;68929;42.666;23.324;2024-01-10T07:03:21;95650.78;;;8.36;39.16
79461;BME280;68929;42.666;23.324;2024-01-10T07:05:47;95628.56;;;7.39;39.13
79461;BME280;68929;42.666;23.324;2024-01-10T07:08:12;95659.31;;;8.38;35.66
79461;BME280;68929;42.666;23.324;2024-01-10T07:10:37;95641.72;;;8.53;36.23
79461;BME280;68929;42.666;23.324;2024-01-10T07:13:04;95675.31;;;7.12;37.39
79461;BME280;68929;42.666;23.324;2024-01-10T07:15:29;95644.91;;;7.10;39.93
79461;BME280;68929;42.666;23.324;2024-01-10T07:17:55;95675.94;;;5.86;40.36
79461;BME280;68929;42.666;23.324;2024-01-10T07:20:21;95678.91;;;7.11;34.85
79461;BME280;68929;42.666;23.324;2024-01-10T07:22:49;95658.22;;;5.96;41.97
79461;BME280;68929;42.666;23.324;2024-01-10T07:25:15;95660.72;;;6.13;38.40
79461;BME280;68929;42.666;23.324;2024-01-10T07:27:41;95661.53;;;7.10;40.16
79461;BME280;68929;42.666;23.324;2024-01-10T07:30:07;95683.53;;;7.17;33.25
79461;BME280;68929;42.666;23.324;2024-01-10T07:32:41;95659.19;;;5.95;37.14
79461;BME280;68929;42.666;23.324;2024-01-10T07:35:07;95658.63;;;6.41;37.31
79461;BME280;68929;42.666;23.324;2024-01-10T07:37:38;95670.94;;;5.75;34.10
79461;BME280;68929;42.666;23.324;2024-01-10T07:40:06;95669.34;;;2.18;38.23
79461;BME280;68929;42.666;23.324;2024-01-10T07:42:32;95674.13;;;3.62;46.90
79461;BME280;68929;42.666;23.324;2024-01-10T07:44:58;95672.91;;;3.83;39.07
79461;BME280;68929;42.666;23.324;2024-01-10T07:47:24;95703.94;;;2.01;45.50
79461;BME280;68929;42.666;23.324;2024-01-10T07:49:50;95703.31;;;1.59;42.52
79461;BME280;68929;42.666;23.324;2024-01-10T07:52:15;95677.94;;;1.71;44.56
79461;BME280;68929;42.666;23.324;2024-01-10T07:54:44;95701.81;;;3.55;46.71
79461;BME280;68929;42.666;23.324;2024-01-10T07:57:09;95687.44;;;6.01;45.29
79461;BME280;68929;42.666;23.324;2024-01-10T07:59:35;95691.44;;;5.79;40.80
79461;BME280;68929;42.666;23.324;2024-01-10T08:02:01;95696.03;;;5.77;43.13
79461;BME280;68929;42.666;23.324;2024-01-10T08:04:27;95695.22;;;5.77;43.20
79461;BME280;68929;42.666;23.324;2024-01-10T08:06:53;95672.41;;;6.43;39.41
79461;BME280;68929;42.666;23.324;2024-01-10T08:09:31;95678.69;;;8.15;36.24
79461;BME280;68929;42.666;23.324;2024-01-10T08:11:59;95657.22;;;8.56;41.34
79461;BME280;68929;42.666;23.324;2024-01-10T08:14:25;95660.50;;;5.91;33.13
79461;BME280;68929;42.666;23.324;2024-01-10T08:17:11;95689.06;;;5.94;43.40
79461;BME280;68929;42.666;23.324;2024-01-10T08:19:44;95704.25;;;6.40;35.70
79461;BME280;68929;42.666;23.324;2024-01-10T08:22:09;95704.06;;;5.76;35.41
79461;BME280;68929;42.666;23.324;2024-01-10T08:24:35;95657.38;;;3.99;39.55
79461;BME280;68929;42.666;23.324;2024-01-10T08:27:05;95707.38;;;4.14;38.22
79461;BME280;68929;42.666;23.324;2024-01-10T08:29:31;95713.31;;;2.98;41.64
79461;BME280;68929;42.666;23.324;2024-01-10T08:31:57;95682.53;;;4.53;41.85
79461;BME280;68929;42.666;23.324;2024-01-10T08:34:26;95705.69;;;4.83;43.07
79461;BME280;68929;42.666;23.324;2024-01-10T08:36:52;95676.66;;;6.28;40.43
79461;BME280;68929;42.666;23.324;2024-01-10T08:39:18;95687.19;;;7.00;43.57
79461;BME280;68929;42.666;23.324;2024-01-10T08:41:44;95695.47;;;7.83;35.14
79461;BME280;68929;42.666;23.324;2024-01-10T08:44:10;95712.38;;;7.50;37.66
79461;BME280;68929;42.666;23.324;2024-01-10T08:46:35;95712.16;;;6.72;40.44
79461;BME280;68929;42.666;23.324;2024-01-10T08:49:01;95689.50;;;5.47;33.98
79461;BME280;68929;42.666;23.324;2024-01-10T08:51:27;95686.66;;;5.07;36.85
79461;BME280;68929;42.666;23.324;2024-01-10T08:53:52;95683.09;;;2.95;37.95
79461;BME280;68929;42.666;23.324;2024-01-10T08:56:18;95703.25;;;3.03;47.13
79461;BME280;68929;42.666;23.324;2024-01-10T08:58:45;95679.09;;;5.63;42.26
79461;BME280;68929;42.666;23.324;2024-01-10T09:01:11;95713.78;;;4.55;36.32
79461;BME280;68929;42.666;23.324;2024-01-10T09:03:36;95701.38;;;5.00;43.84
79461;BME280;68929;42.666;23.324;2024-01-10T09:06:03;95703.41;;;4.63;41.96
79461;BME280;68929;42.666;23.324;2024-01-10T09:08:29;95680.06;;;4.52;40.25
79461;BME280;68929;42.666;23.324;2024-01-10T09:10:55;95678.78;;;4.56;46.70
79461;BME280;68929;42.666;23.324;2024-01-10T09:13:28;95690.00;;;5.51;36.05
79461;BME280;68929;42.666;23.324;2024-01-10T09:15:54;95697.84;;;5.43;39.43
79461;BME280;68929;42.666;23.324;2024-01-10T09:18:19;95687.34;;;5.77;45.20
79461;BME280;68929;42.666;23.324;2024-01-10T09:20:44;95694.41;;;6.90;41.60
79461;BME280;68929;42.666;23.324;2024-01-10T09:23:10;95673.88;;;6.37;35.40
79461;BME280;68929;42.666;23.324;2024-01-10T09:25:36;95694.78;;;4.53;45.68
79461;BME280;68929;42.666;23.324;2024-01-10T09:28:03;95697.69;;;6.52;46.33
79461;BME280;68929;42.666;23.324;2024-01-10T09:30:29;95701.66;;;6.88;38.59
79461;BME280;68929;42.666;23.324;2024-01-10T09:32:57;95679.28;;;7.08;39.93
79461;BME280;68929;42.666;23.324;2024-01-10T09:35:24;95658.63;;;7.83;41.31
79461;BME280;68929;42.666;23.324;2024-01-10T09:37:50;95688.53;;;7.59;42.32
79461;BME280;68929;42.666;23.324;2024-01-10T09:40:16;95651.53;;;8.67;39.01
79461;BME280;68929;42.666;23.324;2024-01-10T09:42:43;95673.03;;;8.56;37.53
79461;BME280;68929;42.666;23.324;2024-01-10T09:45:10;95666.28;;;7.15;36.55
79461;BME280;68929;42.666;23.324;2024-01-10T09:47:39;95678.59;;;6.18;40.53
79461;BME280;68929;42.666;23.324;2024-01-10T09:50:06;95670.56;;;6.11;39.13
79461;BME280;68929;42.666;23.324;2024-01-10T09:52:37;95659.28;;;6.75;42.63
79461;BME280;68929;42.666;23.324;2024-01-10T09:55:05;95685.78;;;7.28;40.46
79461;BME280;68929;42.666;23.324;2024-01-10T09:57:44;95670.53;;;8.01;41.16
79461;BME280;68929;42.666;23.324;2024-01-10T10:00:16;95646.41;;;8.89;40.53
79461;BME280;68929;42.666;23.324;2024-01-10T10:02:51;95663.06;;;8.44;39.88
79461;BME280;68929;42.666;23.324;2024-01-10T10:05:19;95663.44;;;7.24;41.13
79461;BME280;68929;42.666;23.324;2024-01-10T10:07:46;95662.84;;;6.18;40.32
79461;BME280;68929;42.666;23.324;2024-01-10T10:10:12;95669.16;;;5.41;38.30
79461;BME280;68929;42.666;23.324;2024-01-10T10:12:55;95668.47;;;5.31;45.48
79461;BME280;68929;42.666;23.324;2024-01-10T10:15:22;95658.97;;;5.38;43.56
79461;BME280;68929;42.666;23.324;2024-01-10T10:17:49;95653.94;;;5.87;37.81
79461;BME280;68929;42.666;23.324;2024-01-10T10:23:09;95641.06;;;6.41;40.23
79461;BME280;68929;42.666;23.324;2024-01-10T10:25:46;95622.84;;;5.16;40.86
79461;BME280;68929;42.666;23.324;2024-01-10T10:28:28;95638.09;;;5.54;42.93
79461;BME280;68929;42.666;23.324;2024-01-10T10:31:06;95630.22;;;6.69;44.57
79461;BME280;68929;42.666;23.324;2024-01-10T10:33:32;95622.09;;;7.02;40.86
79461;BME280;68929;42.666;23.324;2024-01-10T10:35:58;95616.56;;;6.57;43.30
79461;BME280;68929;42.666;23.324;2024-01-10T10:38:30;95625.38;;;7.04;43.33
79461;BME280;68929;42.666;23.324;2024-01-10T10:40:58;95583.31;;;7.04;40.50
79461;BME280;68929;42.666;23.324;2024-01-10T10:43:24;95593.00;;;7.81;44.04
79461;BME280;68929;42.666;23.324;2024-01-10T10:45:50;95611.31;;;9.61;38.63
79461;BME280;68929;42.666;23.324;2024-01-10T10:48:18;95588.75;;;8.03;38.20
79461;BME280;68929;42.666;23.324;2024-01-10T10:51:04;95607.88;;;7.36;44.06
79461;BME280;68929;42.666;23.324;2024-01-10T10:53:38;95596.25;;;8.59;37.59
79461;BME280;68929;42.666;23.324;2024-01-10T10:56:08;95562.56;;;8.24;40.23
79461;BME280;68929;42.666;23.324;2024-01-10T10:58:35;95568.50;;;8.49;39.99
79461;BME280;68929;42.666;23.324;2024-01-10T11:01:07;95562.28;;;8.79;35.73
79461;BME280;68929;42.666;23.324;2024-01-10T11:03:37;95587.09;;;7.49;37.44
79461;BME280;68929;42.666;23.324;2024-01-10T11:06:04;95588.31;;;7.69;41.75
79461;BME280;68929;42.666;23.324;2024-01-10T11:08:35;95557.63;;;8.29;41.75
79461;BME280;68929;42.666;23.324;2024-01-10T11:11:03;95540.59;;;8.40;40.23
79461;BME280;68929;42.666;23.324;2024-01-10T11:16:32;95519.66;;;10.12;38.57
79461;BME280;68929;42.666;23.324;2024-01-10T11:24:52;95562.56;;;9.78;37.65
79461;BME280;68929;42.666;23.324;2024-01-10T11:27:18;95542.66;;;10.39;35.76
79461;BME280;68929;42.666;23.324;2024-01-10T11:29:46;95540.28;;;10.72;34.40
79461;BME280;68929;42.666;23.324;2024-01-10T11:32:14;95536.72;;;9.38;34.45
79461;BME280;68929;42.666;23.324;2024-01-10T11:34:59;95536.44;;;9.18;35.20
79461;BME280;68929;42.666;23.324;2024-01-10T11:37:44;95535.06;;;9.73;36.82
79461;BME280;68929;42.666;23.324;2024-01-10T11:40:12;95511.47;;;10.56;37.26
79461;BME280;68929;42.666;23.324;2024-01-10T11:42:44;95540.97;;;10.80;35.18
79461;BME280;68929;42.666;23.324;2024-01-10T11:47:59;95539.06;;;10.47;36.29
79461;BME280;68929;42.666;23.324;2024-01-10T11:50:24;95531.53;;;10.71;37.89
79461;BME280;68929;42.666;23.324;2024-01-10T11:52:54;95511.09;;;10.59;36.38
79461;BME280;68929;42.666;23.324;2024-01-10T11:55:49;95521.34;;;10.19;37.32
79461;BME280;68929;42.666;23.324;2024-01-10T11:58:16;95514.88;;;10.50;38.12
79461;BME280;68929;42.666;23.324;2024-01-10T12:00:42;95504.56;;;9.70;34.64
79461;BME280;68929;42.666;23.324;2024-01-10T12:03:07;95518.59;;;7.65;42.20
79461;BME280;68929;42.666;23.324;2024-01-10T12:05:35;95508.69;;;7.44;40.39
79461;BME280;68929;42.666;23.324;2024-01-10T12:08:22;95449.16;;;7.66;41.88
79461;BME280;68929;42.666;23.324;2024-01-10T12:10:47;95510.81;;;8.68;37.23
79461;BME280;68929;42.666;23.324;2024-01-10T12:13:17;95505.69;;;6.15;36.65
79461;BME280;68929;42.666;23.324;2024-01-10T12:15:46;95491.91;;;6.21;43.59
79461;BME280;68929;42.666;23.324;2024-01-10T12:18:11;95484.34;;;8.10;41.63
79461;BME280;68929;42.666;23.324;2024-01-10T12:20:49;95505.94;;;5.31;43.33
79461;BME280;68929;42.666;23.324;2024-01-10T12:23:15;95471.03;;;6.27;42.04
79461;BME280;68929;42.666;23.324;2024-01-10T12:25:40;95478.84;;;6.98;38.35
79461;BME280;68929;42.666;23.324;2024-01-10T12:28:06;95504.41;;;4.71;39.24
79461;BME280;68929;42.666;23.324;2024-01-10T12:30:37;95492.66;;;4.75;43.27
79461;BME280;68929;42.666;23.324;2024-01-10T12:33:02;95473.25;;;4.26;48.93
79461;BME280;68929;42.666;23.324;2024-01-10T12:35:28;95483.91;;;5.08;45.10
79461;BME280;68929;42.666;23.324;2024-01-10T12:37:55;95499.13;;;6.19;45.11
79461;BME280;68929;42.666;23.324;2024-01-10T12:40:22;95480.22;;;6.15;43.15
79461;BME280;68929;42.666;23.324;2024-01-10T12:42:48;95485.91;;;6.51;45.89
79461;BME280;68929;42.666;23.324;2024-01-10T12:45:23;95480.16;;;7.02;42.57
79461;BME280;68929;42.666;23.324;2024-01-10T12:47:49;95467.28;;;7.07;43.35
79461;BME280;68929;42.666;23.324;2024-01-10T12:50:15;95494.38;;;7.92;43.31
79461;BME280;68929;42.666;23.324;2024-01-10T12:52:40;95498.34;;;8.62;42.22
79461;BME280;68929;42.666;23.324;2024-01-10T12:55:08;95486.97;;;8.10;39.83
79461;BME280;68929;42.666;23.324;2024-01-10T12:57:33;95483.00;;;8.66;40.15
79461;BME280;68929;42.666;23.324;2024-01-10T12:59:59;95484.75;;;8.73;36.27
79461;BME280;68929;42.666;23.324;2024-01-10T13:02:24;95487.25;;;7.78;38.29
79461;BME280;68929;42.666;23.324;2024-01-10T13:04:50;95480.38;;;7.23;37.32
79461;BME280;68929;42.666;23.324;2024-01-10T13:07:18;95499.06;;;6.98;44.03
79461;BME280;68929;42.666;23.324;2024-01-10T13:09:44;95475.28;;;6.44;42.21
79461;BME280;68929;42.666;23.324;2024-01-10T13:12:24;95502.19;;;7.32;39.63
79461;BME280;68929;42.666;23.324;2024-01-10T13:14:50;95481.81;;;8.17;40.07